sensor_id;sensor_type;location;lat;lon;timestamp;P1;durP1;ratioP1;P2;durP2;ratioP2
12990;SDS011;6560;57.692;11.958;2023-05-14T00:02:09;5.07;;;3.63;;
12990;SDS011;6560;57.692;11.958;2023-05-14T00:04:34;3.83;;;3.20;;
12990;SDS011;6560;57.692;11.958;2023-05-14T00:06:59;4.10;;;3.07;;
12990;SDS011;6560;57.692;11.958;2023-05-14T00:09:25;5.93;;;3.27;;
12990;SDS011;6560;57.692;11.958;2023-05-14T00:11:50;5.40;;;3.07;;
12990;SDS011;6560;57.692;11.958;2023-05-14T00:14:16;5.00;;;2.87;;
12990;SDS011;6560;57.692;11.958;2023-05-14T00:16:47;4.77;;;3.00;;
12990;SDS011;6560;57.692;11.958;2023-05-14T00:19:19;7.30;;;3.13;;
12990;SDS011;6560;57.692;11.958;2023-05-14T00:21:45;3.40;;;3.10;;
12990;SDS011;6560;57.692;11.958;2023-05-14T00:24:11;8.70;;;2.80;;
12990;SDS011;6560;57.692;11.958;2023-05-14T00:26:36;3.07;;;2.87;;
12990;SDS011;6560;57.692;11.958;2023-05-14T00:29:01;4.73;;;2.63;;
12990;SDS011;6560;57.692;11.958;2023-05-14T00:31:27;4.53;;;2.93;;
12990;SDS011;6560;57.692;11.958;2023-05-14T00:33:52;4.37;;;2.90;;
12990;SDS011;6560;57.692;11.958;2023-05-14T00:36:17;2.90;;;2.70;;
12990;SDS011;6560;57.692;11.958;2023-05-14T00:38:43;6.40;;;3.20;;
12990;SDS011;6560;57.692;11.958;2023-05-14T00:41:08;3.23;;;2.90;;
12990;SDS011;6560;57.692;11.958;2023-05-14T00:43:33;4.47;;;3.33;;
12990;SDS011;6560;57.692;11.958;2023-05-14T00:45:59;5.83;;;3.57;;
12990;SDS011;6560;57.692;11.958;2023-05-14T00:48:24;6.60;;;2.80;;
12990;SDS011;6560;57.692;11.958;2023-05-14T00:50:50;6.10;;;3.30;;
12990;SDS011;6560;57.692;11.958;2023-05-14T00:53:16;3.47;;;3.17;;
12990;SDS011;6560;57.692;11.958;2023-05-14T00:55:42;5.73;;;2.93;;
12990;SDS011;6560;57.692;11.958;2023-05-14T00:58:09;5.33;;;3.03;;
12990;SDS011;6560;57.692;11.958;2023-05-14T01:00:34;3.30;;;3.00;;
12990;SDS011;6560;57.692;11.958;2023-05-14T01:03:00;3.33;;;3.03;;
12990;SDS011;6560;57.692;11.958;2023-05-14T01:05:28;3.67;;;2.80;;
12990;SDS011;6560;57.692;11.958;2023-05-14T01:07:58;4.70;;;2.67;;
12990;SDS011;6560;57.692;11.958;2023-05-14T01:12:55;4.77;;;3.10;;
12990;SDS011;6560;57.692;11.958;2023-05-14T01:15:24;6.40;;;3.03;;
12990;SDS011;6560;57.692;11.958;2023-05-14T01:17:52;3.20;;;2.90;;
12990;SDS011;6560;57.692;11.958;2023-05-14T01:20:17;6.57;;;3.27;;
12990;SDS011;6560;57.692;11.958;2023-05-14T01:22:43;6.07;;;3.10;;
12990;SDS011;6560;57.692;11.958;2023-05-14T01:25:08;4.00;;;3.30;;
12990;SDS011;6560;57.692;11.958;2023-05-14T01:30:13;6.93;;;3.23;;
12990;SDS011;6560;57.692;11.958;2023-05-14T01:32:42;3.13;;;2.70;;
12990;SDS011;6560;57.692;11.958;2023-05-14T01:35:09;4.50;;;3.33;;
12990;SDS011;6560;57.692;11.958;2023-05-14T01:37:34;5.23;;;2.53;;
12990;SDS011;6560;57.692;11.958;2023-05-14T01:40:00;4.00;;;2.70;;
12990;SDS011;6560;57.692;11.958;2023-05-14T01:42:26;3.90;;;2.70;;
12990;SDS011;6560;57.692;11.958;2023-05-14T01:44:52;4.47;;;2.77;;
12990;SDS011;6560;57.692;11.958;2023-05-14T01:47:18;5.77;;;3.30;;
12990;SDS011;6560;57.692;11.958;2023-05-14T01:49:43;4.43;;;2.70;;
12990;SDS011;6560;57.692;11.958;2023-05-14T01:52:09;3.40;;;2.90;;
12990;SDS011;6560;57.692;11.958;2023-05-14T01:54:34;3.57;;;3.27;;
12990;SDS011;6560;57.692;11.958;2023-05-14T01:57:00;3.10;;;2.80;;
12990;SDS011;6560;57.692;11.958;2023-05-14T01:59:25;2.70;;;2.50;;
12990;SDS011;6560;57.692;11.958;2023-05-14T02:01:50;8.17;;;3.13;;
12990;SDS011;6560;57.692;11.958;2023-05-14T02:04:16;4.17;;;2.87;;
12990;SDS011;6560;57.692;11.958;2023-05-14T02:06:48;4.17;;;2.97;;
12990;SDS011;6560;57.692;11.958;2023-05-14T02:09:13;4.33;;;2.83;;
12990;SDS011;6560;57.692;11.958;2023-05-14T02:11:39;5.87;;;2.70;;
12990;SDS011;6560;57.692;11.958;2023-05-14T02:14:04;5.33;;;3.10;;
12990;SDS011;6560;57.692;11.958;2023-05-14T02:16:30;5.07;;;2.77;;
12990;SDS011;6560;57.692;11.958;2023-05-14T02:18:55;5.87;;;3.37;;
12990;SDS011;6560;57.692;11.958;2023-05-14T02:21:20;3.30;;;2.97;;
12990;SDS011;6560;57.692;11.958;2023-05-14T02:23:46;3.37;;;2.83;;
12990;SDS011;6560;57.692;11.958;2023-05-14T02:26:13;2.80;;;2.60;;
12990;SDS011;6560;57.692;11.958;2023-05-14T02:28:38;3.90;;;2.80;;
12990;SDS011;6560;57.692;11.958;2023-05-14T02:31:04;6.60;;;2.87;;
12990;SDS011;6560;57.692;11.958;2023-05-14T02:33:29;8.00;;;3.37;;
12990;SDS011;6560;57.692;11.958;2023-05-14T02:35:55;5.37;;;3.10;;
12990;SDS011;6560;57.692;11.958;2023-05-14T02:38:21;5.23;;;2.80;;
12990;SDS011;6560;57.692;11.958;2023-05-14T02:40:46;4.20;;;2.80;;
12990;SDS011;6560;57.692;11.958;2023-05-14T02:43:11;3.53;;;2.60;;
12990;SDS011;6560;57.692;11.958;2023-05-14T02:45:37;5.47;;;3.10;;
12990;SDS011;6560;57.692;11.958;2023-05-14T02:48:02;4.20;;;3.47;;
12990;SDS011;6560;57.692;11.958;2023-05-14T02:50:27;4.07;;;2.67;;
12990;SDS011;6560;57.692;11.958;2023-05-14T02:52:53;5.33;;;2.80;;
12990;SDS011;6560;57.692;11.958;2023-05-14T02:55:18;4.70;;;3.20;;
12990;SDS011;6560;57.692;11.958;2023-05-14T02:57:43;5.33;;;3.03;;
12990;SDS011;6560;57.692;11.958;2023-05-14T03:00:09;3.90;;;2.43;;
12990;SDS011;6560;57.692;11.958;2023-05-14T03:02:35;2.87;;;2.63;;
12990;SDS011;6560;57.692;11.958;2023-05-14T03:05:00;6.10;;;2.87;;
12990;SDS011;6560;57.692;11.958;2023-05-14T03:07:26;4.60;;;2.93;;
12990;SDS011;6560;57.692;11.958;2023-05-14T03:09:51;4.43;;;2.90;;
12990;SDS011;6560;57.692;11.958;2023-05-14T03:12:16;4.27;;;3.73;;
12990;SDS011;6560;57.692;11.958;2023-05-14T03:14:42;6.13;;;2.97;;
12990;SDS011;6560;57.692;11.958;2023-05-14T03:17:08;6.20;;;2.87;;
12990;SDS011;6560;57.692;11.958;2023-05-14T03:19:33;3.27;;;2.80;;
12990;SDS011;6560;57.692;11.958;2023-05-14T03:21:59;14.17;;;3.47;;
12990;SDS011;6560;57.692;11.958;2023-05-14T03:24:24;4.07;;;2.57;;
12990;SDS011;6560;57.692;11.958;2023-05-14T03:26:49;5.03;;;3.00;;
12990;SDS011;6560;57.692;11.958;2023-05-14T03:29:15;3.47;;;3.00;;
12990;SDS011;6560;57.692;11.958;2023-05-14T03:31:42;3.30;;;2.60;;
12990;SDS011;6560;57.692;11.958;2023-05-14T03:34:07;5.80;;;2.90;;
12990;SDS011;6560;57.692;11.958;2023-05-14T03:36:33;3.67;;;2.60;;
12990;SDS011;6560;57.692;11.958;2023-05-14T03:39:00;5.33;;;3.00;;
12990;SDS011;6560;57.692;11.958;2023-05-14T03:41:25;3.83;;;3.00;;
12990;SDS011;6560;57.692;11.958;2023-05-14T03:43:51;6.37;;;3.50;;
12990;SDS011;6560;57.692;11.958;2023-05-14T03:46:16;5.53;;;2.97;;
12990;SDS011;6560;57.692;11.958;2023-05-14T03:48:42;4.43;;;2.90;;
12990;SDS011;6560;57.692;11.958;2023-05-14T03:51:07;5.60;;;2.93;;
12990;SDS011;6560;57.692;11.958;2023-05-14T03:53:32;3.40;;;2.87;;
12990;SDS011;6560;57.692;11.958;2023-05-14T03:55:58;5.73;;;2.80;;
12990;SDS011;6560;57.692;11.958;2023-05-14T03:58:23;3.80;;;3.07;;
12990;SDS011;6560;57.692;11.958;2023-05-14T04:00:49;4.00;;;3.50;;
12990;SDS011;6560;57.692;11.958;2023-05-14T04:03:14;4.13;;;2.90;;
12990;SDS011;6560;57.692;11.958;2023-05-14T04:05:39;3.77;;;2.67;;
12990;SDS011;6560;57.692;11.958;2023-05-14T04:08:05;3.40;;;3.03;;
12990;SDS011;6560;57.692;11.958;2023-05-14T04:10:30;3.43;;;2.60;;
12990;SDS011;6560;57.692;11.958;2023-05-14T04:12:56;4.33;;;3.17;;
12990;SDS011;6560;57.692;11.958;2023-05-14T04:15:21;4.47;;;2.47;;
12990;SDS011;6560;57.692;11.958;2023-05-14T04:17:47;5.43;;;2.83;;
12990;SDS011;6560;57.692;11.958;2023-05-14T04:20:12;5.77;;;3.20;;
12990;SDS011;6560;57.692;11.958;2023-05-14T04:22:37;3.17;;;2.57;;
12990;SDS011;6560;57.692;11.958;2023-05-14T04:25:03;5.53;;;2.58;;
12990;SDS011;6560;57.692;11.958;2023-05-14T04:27:28;5.80;;;3.25;;
12990;SDS011;6560;57.692;11.958;2023-05-14T04:29:54;3.97;;;2.75;;
12990;SDS011;6560;57.692;11.958;2023-05-14T04:32:19;3.70;;;2.53;;
12990;SDS011;6560;57.692;11.958;2023-05-14T04:34:45;5.57;;;2.60;;
12990;SDS011;6560;57.692;11.958;2023-05-14T04:37:13;3.65;;;2.78;;
12990;SDS011;6560;57.692;11.958;2023-05-14T04:39:38;2.60;;;2.40;;
12990;SDS011;6560;57.692;11.958;2023-05-14T04:42:04;3.47;;;2.97;;
12990;SDS011;6560;57.692;11.958;2023-05-14T04:44:30;5.85;;;3.00;;
12990;SDS011;6560;57.692;11.958;2023-05-14T04:46:55;3.13;;;2.67;;
12990;SDS011;6560;57.692;11.958;2023-05-14T04:49:21;6.85;;;2.92;;
12990;SDS011;6560;57.692;11.958;2023-05-14T04:51:46;4.45;;;2.42;;
12990;SDS011;6560;57.692;11.958;2023-05-14T04:54:12;3.72;;;2.47;;
12990;SDS011;6560;57.692;11.958;2023-05-14T04:56:37;2.85;;;2.50;;
12990;SDS011;6560;57.692;11.958;2023-05-14T04:59:03;5.10;;;2.50;;
12990;SDS011;6560;57.692;11.958;2023-05-14T05:01:28;4.38;;;2.30;;
12990;SDS011;6560;57.692;11.958;2023-05-14T05:03:53;4.80;;;2.80;;
12990;SDS011;6560;57.692;11.958;2023-05-14T05:06:19;5.25;;;2.75;;
12990;SDS011;6560;57.692;11.958;2023-05-14T05:08:44;2.92;;;2.33;;
12990;SDS011;6560;57.692;11.958;2023-05-14T05:11:10;4.25;;;2.45;;
12990;SDS011;6560;57.692;11.958;2023-05-14T05:13:35;4.78;;;2.58;;
12990;SDS011;6560;57.692;11.958;2023-05-14T05:16:00;3.83;;;2.38;;
12990;SDS011;6560;57.692;11.958;2023-05-14T05:18:25;7.65;;;2.17;;
12990;SDS011;6560;57.692;11.958;2023-05-14T05:20:51;4.53;;;2.60;;
12990;SDS011;6560;57.692;11.958;2023-05-14T05:23:16;4.05;;;2.35;;
12990;SDS011;6560;57.692;11.958;2023-05-14T05:25:42;3.70;;;1.90;;
12990;SDS011;6560;57.692;11.958;2023-05-14T05:28:07;4.00;;;2.28;;
12990;SDS011;6560;57.692;11.958;2023-05-14T05:30:32;4.75;;;2.10;;
12990;SDS011;6560;57.692;11.958;2023-05-14T05:32:58;7.03;;;2.78;;
12990;SDS011;6560;57.692;11.958;2023-05-14T05:35:23;4.55;;;1.98;;
12990;SDS011;6560;57.692;11.958;2023-05-14T05:37:48;2.20;;;2.00;;
12990;SDS011;6560;57.692;11.958;2023-05-14T05:40:14;4.63;;;2.50;;
12990;SDS011;6560;57.692;11.958;2023-05-14T05:42:40;3.83;;;2.10;;
12990;SDS011;6560;57.692;11.958;2023-05-14T05:45:05;3.80;;;2.08;;
12990;SDS011;6560;57.692;11.958;2023-05-14T05:47:31;4.32;;;2.30;;
12990;SDS011;6560;57.692;11.958;2023-05-14T05:49:56;5.03;;;2.38;;
12990;SDS011;6560;57.692;11.958;2023-05-14T05:52:21;3.83;;;2.10;;
12990;SDS011;6560;57.692;11.958;2023-05-14T05:54:47;7.88;;;2.60;;
12990;SDS011;6560;57.692;11.958;2023-05-14T05:57:12;2.72;;;2.13;;
12990;SDS011;6560;57.692;11.958;2023-05-14T05:59:37;4.72;;;2.47;;
12990;SDS011;6560;57.692;11.958;2023-05-14T06:02:03;4.22;;;2.47;;
12990;SDS011;6560;57.692;11.958;2023-05-14T06:04:28;4.95;;;2.10;;
12990;SDS011;6560;57.692;11.958;2023-05-14T06:06:53;4.28;;;2.53;;
12990;SDS011;6560;57.692;11.958;2023-05-14T06:09:19;3.20;;;2.42;;
12990;SDS011;6560;57.692;11.958;2023-05-14T06:11:44;2.92;;;2.35;;
12990;SDS011;6560;57.692;11.958;2023-05-14T06:14:10;8.07;;;2.55;;
12990;SDS011;6560;57.692;11.958;2023-05-14T06:16:35;4.95;;;2.40;;
12990;SDS011;6560;57.692;11.958;2023-05-14T06:19:00;5.70;;;2.58;;
12990;SDS011;6560;57.692;11.958;2023-05-14T06:21:26;4.55;;;2.47;;
12990;SDS011;6560;57.692;11.958;2023-05-14T06:23:51;5.80;;;2.10;;
12990;SDS011;6560;57.692;11.958;2023-05-14T06:26:16;4.07;;;1.95;;
12990;SDS011;6560;57.692;11.958;2023-05-14T06:28:42;4.60;;;1.95;;
12990;SDS011;6560;57.692;11.958;2023-05-14T06:31:07;4.28;;;2.50;;
12990;SDS011;6560;57.692;11.958;2023-05-14T06:33:32;2.42;;;2.22;;
12990;SDS011;6560;57.692;11.958;2023-05-14T06:36:02;5.80;;;2.50;;
12990;SDS011;6560;57.692;11.958;2023-05-14T06:38:28;3.60;;;2.35;;
12990;SDS011;6560;57.692;11.958;2023-05-14T06:40:53;3.15;;;2.20;;
12990;SDS011;6560;57.692;11.958;2023-05-14T06:43:19;3.35;;;2.60;;
12990;SDS011;6560;57.692;11.958;2023-05-14T06:45:47;7.10;;;2.53;;
12990;SDS011;6560;57.692;11.958;2023-05-14T06:48:12;5.45;;;2.50;;
12990;SDS011;6560;57.692;11.958;2023-05-14T06:50:38;5.05;;;2.42;;
12990;SDS011;6560;57.692;11.958;2023-05-14T06:53:03;5.38;;;2.85;;
12990;SDS011;6560;57.692;11.958;2023-05-14T06:55:29;5.22;;;2.33;;
12990;SDS011;6560;57.692;11.958;2023-05-14T06:57:54;4.15;;;2.80;;
12990;SDS011;6560;57.692;11.958;2023-05-14T07:00:20;4.03;;;2.60;;
12990;SDS011;6560;57.692;11.958;2023-05-14T07:02:45;4.47;;;2.17;;
12990;SDS011;6560;57.692;11.958;2023-05-14T07:05:10;2.90;;;2.33;;
12990;SDS011;6560;57.692;11.958;2023-05-14T07:07:36;2.65;;;2.45;;
12990;SDS011;6560;57.692;11.958;2023-05-14T07:10:01;7.35;;;2.90;;
12990;SDS011;6560;57.692;11.958;2023-05-14T07:12:26;3.67;;;2.20;;
12990;SDS011;6560;57.692;11.958;2023-05-14T07:14:52;5.72;;;2.55;;
12990;SDS011;6560;57.692;11.958;2023-05-14T07:17:17;6.10;;;2.53;;
12990;SDS011;6560;57.692;11.958;2023-05-14T07:19:43;3.42;;;2.60;;
12990;SDS011;6560;57.692;11.958;2023-05-14T07:22:08;3.58;;;2.90;;
12990;SDS011;6560;57.692;11.958;2023-05-14T07:24:33;4.20;;;2.50;;
12990;SDS011;6560;57.692;11.958;2023-05-14T07:26:59;5.57;;;3.35;;
12990;SDS011;6560;57.692;11.958;2023-05-14T07:29:25;5.68;;;2.55;;
12990;SDS011;6560;57.692;11.958;2023-05-14T07:31:51;6.80;;;2.60;;
12990;SDS011;6560;57.692;11.958;2023-05-14T07:34:16;3.60;;;2.38;;
12990;SDS011;6560;57.692;11.958;2023-05-14T07:36:41;6.95;;;2.97;;
12990;SDS011;6560;57.692;11.958;2023-05-14T07:39:07;5.28;;;2.65;;
12990;SDS011;6560;57.692;11.958;2023-05-14T07:41:32;2.50;;;2.30;;
12990;SDS011;6560;57.692;11.958;2023-05-14T07:43:57;6.50;;;2.65;;
12990;SDS011;6560;57.692;11.958;2023-05-14T07:46:23;3.08;;;2.55;;
12990;SDS011;6560;57.692;11.958;2023-05-14T07:48:49;5.00;;;2.63;;
12990;SDS011;6560;57.692;11.958;2023-05-14T07:51:15;2.92;;;2.60;;
12990;SDS011;6560;57.692;11.958;2023-05-14T07:53:40;4.60;;;2.83;;
12990;SDS011;6560;57.692;11.958;2023-05-14T07:56:05;2.63;;;2.40;;
12990;SDS011;6560;57.692;11.958;2023-05-14T07:58:31;5.47;;;2.50;;
12990;SDS011;6560;57.692;11.958;2023-05-14T08:00:56;8.35;;;3.05;;
12990;SDS011;6560;57.692;11.958;2023-05-14T08:03:21;5.20;;;2.50;;
12990;SDS011;6560;57.692;11.958;2023-05-14T08:05:47;3.58;;;2.58;;
12990;SDS011;6560;57.692;11.958;2023-05-14T08:08:18;4.22;;;3.08;;
12990;SDS011;6560;57.692;11.958;2023-05-14T08:10:44;5.82;;;2.95;;
12990;SDS011;6560;57.692;11.958;2023-05-14T08:13:09;3.80;;;2.38;;
12990;SDS011;6560;57.692;11.958;2023-05-14T08:15:35;4.68;;;2.22;;
12990;SDS011;6560;57.692;11.958;2023-05-14T08:18:00;4.13;;;2.63;;
12990;SDS011;6560;57.692;11.958;2023-05-14T08:20:28;3.60;;;2.58;;
12990;SDS011;6560;57.692;11.958;2023-05-14T08:22:53;7.53;;;3.03;;
12990;SDS011;6560;57.692;11.958;2023-05-14T08:25:19;4.05;;;2.63;;
12990;SDS011;6560;57.692;11.958;2023-05-14T08:27:44;4.50;;;2.85;;
12990;SDS011;6560;57.692;11.958;2023-05-14T08:30:10;6.65;;;2.80;;
12990;SDS011;6560;57.692;11.958;2023-05-14T08:32:35;3.40;;;2.53;;
12990;SDS011;6560;57.692;11.958;2023-05-14T08:35:02;3.47;;;2.72;;
12990;SDS011;6560;57.692;11.958;2023-05-14T08:37:27;3.83;;;2.80;;
12990;SDS011;6560;57.692;11.958;2023-05-14T08:39:53;3.83;;;2.78;;
12990;SDS011;6560;57.692;11.958;2023-05-14T08:42:19;2.53;;;2.33;;
12990;SDS011;6560;57.692;11.958;2023-05-14T08:44:50;3.08;;;2.78;;
12990;SDS011;6560;57.692;11.958;2023-05-14T08:47:17;5.20;;;2.55;;
12990;SDS011;6560;57.692;11.958;2023-05-14T08:49:45;4.10;;;2.63;;
12990;SDS011;6560;57.692;11.958;2023-05-14T08:52:11;5.22;;;2.80;;
12990;SDS011;6560;57.692;11.958;2023-05-14T08:54:37;4.55;;;2.53;;
12990;SDS011;6560;57.692;11.958;2023-05-14T08:57:03;4.15;;;2.83;;
12990;SDS011;6560;57.692;11.958;2023-05-14T08:59:28;6.82;;;2.70;;
12990;SDS011;6560;57.692;11.958;2023-05-14T09:01:54;4.53;;;2.60;;
12990;SDS011;6560;57.692;11.958;2023-05-14T09:04:21;2.67;;;2.40;;
12990;SDS011;6560;57.692;11.958;2023-05-14T09:06:51;5.35;;;2.50;;
12990;SDS011;6560;57.692;11.958;2023-05-14T09:09:17;4.70;;;2.38;;
12990;SDS011;6560;57.692;11.958;2023-05-14T09:11:46;2.55;;;2.20;;
12990;SDS011;6560;57.692;11.958;2023-05-14T09:14:11;6.45;;;2.75;;
12990;SDS011;6560;57.692;11.958;2023-05-14T09:16:37;4.45;;;2.70;;
12990;SDS011;6560;57.692;11.958;2023-05-14T09:19:03;2.55;;;2.35;;
12990;SDS011;6560;57.692;11.958;2023-05-14T09:21:28;4.93;;;2.70;;
12990;SDS011;6560;57.692;11.958;2023-05-14T09:23:54;2.80;;;2.60;;
12990;SDS011;6560;57.692;11.958;2023-05-14T09:26:24;2.90;;;2.60;;
12990;SDS011;6560;57.692;11.958;2023-05-14T09:28:53;6.53;;;2.63;;
12990;SDS011;6560;57.692;11.958;2023-05-14T09:31:19;4.97;;;2.70;;
12990;SDS011;6560;57.692;11.958;2023-05-14T09:33:48;6.13;;;2.40;;
12990;SDS011;6560;57.692;11.958;2023-05-14T09:36:13;5.68;;;2.50;;
12990;SDS011;6560;57.692;11.958;2023-05-14T09:38:39;3.22;;;2.92;;
12990;SDS011;6560;57.692;11.958;2023-05-14T09:41:04;4.63;;;2.60;;
12990;SDS011;6560;57.692;11.958;2023-05-14T09:43:30;3.38;;;2.80;;
12990;SDS011;6560;57.692;11.958;2023-05-14T09:45:55;2.50;;;2.30;;
12990;SDS011;6560;57.692;11.958;2023-05-14T09:48:20;2.95;;;2.55;;
12990;SDS011;6560;57.692;11.958;2023-05-14T09:50:46;2.90;;;2.22;;
12990;SDS011;6560;57.692;11.958;2023-05-14T09:53:12;2.90;;;2.70;;
12990;SDS011;6560;57.692;11.958;2023-05-14T09:55:38;4.03;;;3.05;;
12990;SDS011;6560;57.692;11.958;2023-05-14T09:58:03;6.97;;;2.63;;
12990;SDS011;6560;57.692;11.958;2023-05-14T10:00:32;3.92;;;2.63;;
12990;SDS011;6560;57.692;11.958;2023-05-14T10:02:58;4.85;;;2.80;;
12990;SDS011;6560;57.692;11.958;2023-05-14T10:05:23;2.53;;;2.33;;
12990;SDS011;6560;57.692;11.958;2023-05-14T10:07:51;4.75;;;2.22;;
12990;SDS011;6560;57.692;11.958;2023-05-14T10:10:18;3.40;;;2.47;;
12990;SDS011;6560;57.692;11.958;2023-05-14T10:12:45;2.67;;;2.47;;
12990;SDS011;6560;57.692;11.958;2023-05-14T10:15:15;3.30;;;2.75;;
12990;SDS011;6560;57.692;11.958;2023-05-14T10:17:43;6.90;;;3.08;;
12990;SDS011;6560;57.692;11.958;2023-05-14T10:20:12;3.70;;;2.70;;
12990;SDS011;6560;57.692;11.958;2023-05-14T10:22:38;6.78;;;3.45;;
12990;SDS011;6560;57.692;11.958;2023-05-14T10:25:04;5.82;;;2.33;;
12990;SDS011;6560;57.692;11.958;2023-05-14T10:27:29;5.47;;;2.88;;
12990;SDS011;6560;57.692;11.958;2023-05-14T10:29:55;2.97;;;2.67;;
12990;SDS011;6560;57.692;11.958;2023-05-14T10:32:21;3.78;;;2.95;;
12990;SDS011;6560;57.692;11.958;2023-05-14T10:34:49;3.72;;;2.53;;
12990;SDS011;6560;57.692;11.958;2023-05-14T10:37:18;6.03;;;2.80;;
12990;SDS011;6560;57.692;11.958;2023-05-14T10:42:24;9.10;;;3.05;;
12990;SDS011;6560;57.692;11.958;2023-05-14T10:44:54;3.70;;;2.63;;
12990;SDS011;6560;57.692;11.958;2023-05-14T10:47:22;5.82;;;3.00;;
12990;SDS011;6560;57.692;11.958;2023-05-14T10:49:48;3.75;;;2.88;;
12990;SDS011;6560;57.692;11.958;2023-05-14T10:52:17;2.40;;;2.20;;
12990;SDS011;6560;57.692;11.958;2023-05-14T10:54:56;3.45;;;2.13;;
12990;SDS011;6560;57.692;11.958;2023-05-14T10:57:25;3.15;;;2.10;;
12990;SDS011;6560;57.692;11.958;2023-05-14T10:59:53;4.55;;;2.28;;
12990;SDS011;6560;57.692;11.958;2023-05-14T11:02:26;3.90;;;2.03;;
12990;SDS011;6560;57.692;11.958;2023-05-14T11:04:55;4.05;;;2.10;;
12990;SDS011;6560;57.692;11.958;2023-05-14T11:07:23;4.38;;;2.38;;
12990;SDS011;6560;57.692;11.958;2023-05-14T11:09:49;5.97;;;2.20;;
12990;SDS011;6560;57.692;11.958;2023-05-14T11:12:15;3.47;;;2.28;;
12990;SDS011;6560;57.692;11.958;2023-05-14T11:14:40;2.22;;;2.03;;
12990;SDS011;6560;57.692;11.958;2023-05-14T11:17:05;3.25;;;2.08;;
12990;SDS011;6560;57.692;11.958;2023-05-14T11:19:31;5.57;;;2.40;;
12990;SDS011;6560;57.692;11.958;2023-05-14T11:21:56;4.22;;;1.98;;
12990;SDS011;6560;57.692;11.958;2023-05-14T11:24:22;3.63;;;2.30;;
12990;SDS011;6560;57.692;11.958;2023-05-14T11:26:47;4.43;;;2.35;;
12990;SDS011;6560;57.692;11.958;2023-05-14T11:29:12;2.33;;;1.90;;
12990;SDS011;6560;57.692;11.958;2023-05-14T11:31:38;2.60;;;2.17;;
12990;SDS011;6560;57.692;11.958;2023-05-14T11:34:05;5.95;;;2.25;;
12990;SDS011;6560;57.692;11.958;2023-05-14T11:36:31;3.38;;;2.60;;
12990;SDS011;6560;57.692;11.958;2023-05-14T11:38:56;2.88;;;2.28;;
12990;SDS011;6560;57.692;11.958;2023-05-14T11:41:21;2.17;;;1.98;;
12990;SDS011;6560;57.692;11.958;2023-05-14T11:43:47;3.90;;;2.38;;
12990;SDS011;6560;57.692;11.958;2023-05-14T11:46:16;3.30;;;2.42;;
12990;SDS011;6560;57.692;11.958;2023-05-14T11:48:42;5.53;;;2.22;;
12990;SDS011;6560;57.692;11.958;2023-05-14T11:51:07;3.20;;;2.28;;
12990;SDS011;6560;57.692;11.958;2023-05-14T11:53:33;4.53;;;2.50;;
12990;SDS011;6560;57.692;11.958;2023-05-14T11:55:58;3.95;;;2.42;;
12990;SDS011;6560;57.692;11.958;2023-05-14T11:58:24;3.20;;;2.42;;
12990;SDS011;6560;57.692;11.958;2023-05-14T12:00:49;3.65;;;2.20;;
12990;SDS011;6560;57.692;11.958;2023-05-14T12:03:15;4.35;;;2.50;;
12990;SDS011;6560;57.692;11.958;2023-05-14T12:05:53;3.75;;;2.15;;
12990;SDS011;6560;57.692;11.958;2023-05-14T12:08:24;3.33;;;2.13;;
12990;SDS011;6560;57.692;11.958;2023-05-14T12:10:49;5.28;;;2.10;;
12990;SDS011;6560;57.692;11.958;2023-05-14T12:13:15;5.82;;;2.63;;
12990;SDS011;6560;57.692;11.958;2023-05-14T12:15:45;2.40;;;2.20;;
12990;SDS011;6560;57.692;11.958;2023-05-14T12:18:11;4.72;;;2.65;;
12990;SDS011;6560;57.692;11.958;2023-05-14T12:20:36;4.93;;;2.65;;
12990;SDS011;6560;57.692;11.958;2023-05-14T12:23:01;3.33;;;2.55;;
12990;SDS011;6560;57.692;11.958;2023-05-14T12:25:27;3.10;;;2.33;;
12990;SDS011;6560;57.692;11.958;2023-05-14T12:27:53;5.28;;;2.53;;
12990;SDS011;6560;57.692;11.958;2023-05-14T12:30:18;3.28;;;2.60;;
12990;SDS011;6560;57.692;11.958;2023-05-14T12:32:44;3.97;;;2.58;;
12990;SDS011;6560;57.692;11.958;2023-05-14T12:35:09;3.20;;;2.67;;
12990;SDS011;6560;57.692;11.958;2023-05-14T12:37:35;5.10;;;2.67;;
12990;SDS011;6560;57.692;11.958;2023-05-14T12:40:04;4.90;;;2.85;;
12990;SDS011;6560;57.692;11.958;2023-05-14T12:42:35;3.80;;;2.63;;
12990;SDS011;6560;57.692;11.958;2023-05-14T12:45:00;3.92;;;2.70;;
12990;SDS011;6560;57.692;11.958;2023-05-14T12:47:35;5.97;;;2.70;;
12990;SDS011;6560;57.692;11.958;2023-05-14T12:50:01;5.72;;;2.45;;
12990;SDS011;6560;57.692;11.958;2023-05-14T12:52:26;3.30;;;2.20;;
12990;SDS011;6560;57.692;11.958;2023-05-14T12:54:52;2.88;;;2.65;;
12990;SDS011;6560;57.692;11.958;2023-05-14T12:57:17;7.07;;;2.20;;
12990;SDS011;6560;57.692;11.958;2023-05-14T12:59:42;2.40;;;1.90;;
12990;SDS011;6560;57.692;11.958;2023-05-14T13:02:08;1.95;;;1.65;;
12990;SDS011;6560;57.692;11.958;2023-05-14T13:04:33;2.10;;;1.90;;
12990;SDS011;6560;57.692;11.958;2023-05-14T13:06:58;1.77;;;1.52;;
12990;SDS011;6560;57.692;11.958;2023-05-14T13:09:24;3.83;;;1.73;;
12990;SDS011;6560;57.692;11.958;2023-05-14T13:11:51;4.20;;;1.60;;
12990;SDS011;6560;57.692;11.958;2023-05-14T13:14:17;1.70;;;1.60;;
12990;SDS011;6560;57.692;11.958;2023-05-14T13:16:42;4.60;;;2.08;;
12990;SDS011;6560;57.692;11.958;2023-05-14T13:19:07;2.60;;;1.70;;
12990;SDS011;6560;57.692;11.958;2023-05-14T13:21:33;1.73;;;1.58;;
12990;SDS011;6560;57.692;11.958;2023-05-14T13:23:58;1.65;;;1.52;;
12990;SDS011;6560;57.692;11.958;2023-05-14T13:26:24;2.63;;;1.88;;
12990;SDS011;6560;57.692;11.958;2023-05-14T13:28:52;4.22;;;2.00;;
12990;SDS011;6560;57.692;11.958;2023-05-14T13:31:17;1.60;;;1.50;;
12990;SDS011;6560;57.692;11.958;2023-05-14T13:33:43;2.47;;;1.90;;
12990;SDS011;6560;57.692;11.958;2023-05-14T13:36:09;1.45;;;1.35;;
12990;SDS011;6560;57.692;11.958;2023-05-14T13:38:35;3.70;;;1.75;;
12990;SDS011;6560;57.692;11.958;2023-05-14T13:41:01;3.60;;;2.05;;
12990;SDS011;6560;57.692;11.958;2023-05-14T13:43:30;2.03;;;1.77;;
12990;SDS011;6560;57.692;11.958;2023-05-14T13:45:55;8.93;;;2.13;;
12990;SDS011;6560;57.692;11.958;2023-05-14T13:48:21;4.60;;;2.08;;
12990;SDS011;6560;57.692;11.958;2023-05-14T13:50:46;2.63;;;2.00;;
12990;SDS011;6560;57.692;11.958;2023-05-14T13:53:12;4.43;;;1.98;;
12990;SDS011;6560;57.692;11.958;2023-05-14T13:55:37;2.13;;;1.67;;
12990;SDS011;6560;57.692;11.958;2023-05-14T13:58:03;2.42;;;2.00;;
12990;SDS011;6560;57.692;11.958;2023-05-14T14:00:28;2.38;;;1.52;;
12990;SDS011;6560;57.692;11.958;2023-05-14T14:02:53;5.78;;;2.13;;
12990;SDS011;6560;57.692;11.958;2023-05-14T14:05:19;2.63;;;2.00;;
12990;SDS011;6560;57.692;11.958;2023-05-14T14:07:44;5.85;;;2.35;;
12990;SDS011;6560;57.692;11.958;2023-05-14T14:10:09;2.75;;;2.35;;
12990;SDS011;6560;57.692;11.958;2023-05-14T14:12:35;3.42;;;2.63;;
12990;SDS011;6560;57.692;11.958;2023-05-14T14:15:00;3.78;;;2.40;;
12990;SDS011;6560;57.692;11.958;2023-05-14T14:17:27;3.13;;;1.80;;
12990;SDS011;6560;57.692;11.958;2023-05-14T14:19:52;4.88;;;1.88;;
12990;SDS011;6560;57.692;11.958;2023-05-14T14:22:18;2.80;;;2.00;;
12990;SDS011;6560;57.692;11.958;2023-05-14T14:24:43;2.40;;;1.92;;
12990;SDS011;6560;57.692;11.958;2023-05-14T14:27:09;4.82;;;2.10;;
12990;SDS011;6560;57.692;11.958;2023-05-14T14:29:34;2.83;;;1.92;;
12990;SDS011;6560;57.692;11.958;2023-05-14T14:32:00;3.22;;;2.03;;
12990;SDS011;6560;57.692;11.958;2023-05-14T14:34:26;1.98;;;1.73;;
12990;SDS011;6560;57.692;11.958;2023-05-14T14:36:51;3.60;;;1.83;;
12990;SDS011;6560;57.692;11.958;2023-05-14T14:39:16;4.50;;;2.28;;
12990;SDS011;6560;57.692;11.958;2023-05-14T14:41:42;3.15;;;1.75;;
12990;SDS011;6560;57.692;11.958;2023-05-14T14:44:08;3.80;;;1.73;;
12990;SDS011;6560;57.692;11.958;2023-05-14T14:46:33;6.38;;;2.60;;
12990;SDS011;6560;57.692;11.958;2023-05-14T14:48:58;3.22;;;2.00;;